Time;durP1;ratioP1;P1;durP2;ratioP2;P2;SDS_P1;SDS_P2;PMS_P1;PMS_P2;Temp;Humidity;BMP_temperature;BMP_pressure;BME280_temperature;BME280_humidity;BME280_pressure;Samples;Min_cycle;Max_cycle;Signal;HPM_P1;HPM_P2
2021/04/10 00:02:08;;;;;;;77.92;29.57;;;;;;;3.53;58.70;100331.66;1670011;84;21232;-76
2021/04/10 00:04:35;;;;;;;73.00;27.50;;;;;;;3.59;58.83;100328.17;1682735;84;21628;-77
2021/04/10 00:07:01;;;;;;;55.23;22.50;;;;;;;3.60;59.00;100317.48;1659995;85;21981;-76
2021/04/10 00:09:28;;;;;;;56.75;22.58;;;;;;;3.59;59.13;100323.70;1664605;86;22013;-76
2021/04/10 00:11:54;;;;;;;58.20;23.18;;;;;;;3.60;59.26;100322.75;1661946;86;21618;-76
2021/04/10 00:14:21;;;;;;;56.77;24.63;;;;;;;3.62;59.35;100318.69;1663696;86;21203;-76
2021/04/10 00:16:47;;;;;;;46.13;23.07;;;;;;;3.61;59.47;100320.95;1662838;85;21177;-76
2021/04/10 00:19:13;;;;;;;64.12;24.35;;;;;;;3.56;59.57;100323.97;1684963;85;21160;-76
2021/04/10 00:21:40;;;;;;;48.10;22.77;;;;;;;3.50;59.66;100322.69;1666791;85;21533;-76
2021/04/10 00:24:08;;;;;;;49.08;22.15;;;;;;;3.44;59.75;100319.25;1701153;84;21605;-76
2021/04/10 00:26:34;;;;;;;52.45;21.65;;;;;;;3.40;59.85;100320.94;1701317;84;21198;-76
2021/04/10 00:29:01;;;;;;;54.85;23.27;;;;;;;3.35;59.93;100327.89;1721747;83;21176;-76
2021/04/10 00:31:27;;;;;;;68.05;27.30;;;;;;;3.32;60.00;100331.26;1693185;83;21472;-76
2021/04/10 00:33:53;;;;;;;56.23;24.65;;;;;;;3.32;60.08;100329.47;1692276;84;21168;-76
2021/04/10 00:36:20;;;;;;;57.60;24.92;;;;;;;3.33;60.12;100331.15;1692515;84;21640;-76
2021/04/10 00:38:46;;;;;;;53.13;27.42;;;;;;;3.32;60.16;100334.73;1682847;83;21176;-76
2021/04/10 00:41:13;;;;;;;46.25;22.70;;;;;;;3.26;60.22;100328.66;1687459;84;21656;-76
2021/04/10 00:43:40;;;;;;;40.85;20.62;;;;;;;3.19;60.29;100330.59;1661845;86;21193;-76
2021/04/10 00:46:06;;;;;;;37.65;19.27;;;;;;;3.14;60.38;100331.44;1678933;84;21275;-76
2021/04/10 00:48:34;;;;;;;37.23;18.67;;;;;;;3.06;60.50;100329.45;1689728;84;21621;-76
2021/04/10 00:51:00;;;;;;;38.85;19.27;;;;;;;3.03;60.57;100323.08;1671899;84;21202;-76
2021/04/10 00:53:27;;;;;;;44.58;23.05;;;;;;;3.00;60.65;100323.33;1668653;83;21136;-76
2021/04/10 00:55:56;;;;;;;48.05;22.50;;;;;;;2.97;60.71;100318.31;1692452;84;21156;-75
2021/04/10 00:58:22;;;;;;;48.47;21.33;;;;;;;2.99;60.80;100328.27;1692892;84;21379;-76
2021/04/10 01:00:49;;;;;;;47.15;23.05;;;;;;;2.99;60.88;100319.05;1663023;84;21188;-76
2021/04/10 01:03:16;;;;;;;47.23;23.25;;;;;;;3.01;60.95;100318.43;1689630;84;21160;-76
2021/04/10 01:05:42;;;;;;;54.73;25.32;;;;;;;3.08;61.02;100319.61;1680951;84;21174;-76
2021/04/10 01:08:09;;;;;;;56.58;25.72;;;;;;;3.16;61.10;100317.67;1661739;86;21205;-76
2021/04/10 01:10:35;;;;;;;52.35;24.75;;;;;;;3.22;61.20;100315.37;1661909;86;21162;-76
2021/04/10 01:13:22;;;;;;;50.98;24.10;;;;;;;3.26;61.25;100318.12;1661672;86;21687;-76
2021/04/10 01:16:01;;;;;;;47.78;22.70;;;;;;;3.34;61.31;100322.77;1661890;86;21659;-76
2021/04/10 01:18:36;;;;;;;48.25;23.32;;;;;;;3.39;61.37;100320.09;1662023;86;21213;-76
2021/04/10 01:21:20;;;;;;;45.65;21.55;;;;;;;3.45;61.38;100322.22;1661617;86;21170;-76
2021/04/10 01:24:20;;;;;;;49.53;22.85;;;;;;;3.48;61.41;100326.42;1653616;85;21986;-76
2021/04/10 01:26:55;;;;;;;43.40;22.37;;;;;;;3.50;61.43;100317.89;1650405;86;21175;-76
2021/04/10 01:29:22;;;;;;;41.33;20.15;;;;;;;3.53;61.42;100319.80;1600884;86;21141;-76
2021/04/10 01:31:51;;;;;;;37.23;19.62;;;;;;;3.53;61.43;100319.80;1650367;85;21668;-76
2021/04/10 01:34:31;;;;;;;41.92;18.67;;;;;;;3.58;61.42;100315.47;1650385;86;21196;-76
2021/04/10 01:37:04;;;;;;;32.20;17.92;;;;;;;3.58;61.41;100315.95;1650037;85;21291;-76
2021/04/10 01:39:30;;;;;;;35.83;17.90;;;;;;;3.59;61.40;100313.16;1650208;86;21616;-76
2021/04/10 01:41:56;;;;;;;38.48;18.57;;;;;;;3.59;61.39;100314.98;1602667;86;21598;-76
2021/04/10 01:44:22;;;;;;;38.38;18.10;;;;;;;3.57;61.39;100319.53;1650316;86;21603;-76
2021/04/10 01:46:49;;;;;;;35.30;17.25;;;;;;;3.56;61.39;100319.17;1650496;86;21689;-76
2021/04/10 01:49:15;;;;;;;35.30;16.87;;;;;;;3.56;61.39;100312.58;1650602;85;21287;-76
2021/04/10 01:51:42;;;;;;;38.83;17.30;;;;;;;3.61;61.39;100307.77;1650196;86;21203;-76
2021/04/10 01:54:08;;;;;;;34.10;17.48;;;;;;;3.65;61.37;100312.67;1650312;86;21672;-76
2021/04/10 01:56:37;;;;;;;40.28;17.50;;;;;;;3.66;61.36;100312.20;1650348;85;21183;-76
2021/04/10 01:59:03;;;;;;;41.58;17.75;;;;;;;3.67;61.35;100308.09;1650317;86;21216;-76
2021/04/10 02:01:30;;;;;;;41.42;17.62;;;;;;;3.73;61.35;100305.45;1623791;88;22154;-76
2021/04/10 02:03:56;;;;;;;44.48;16.07;;;;;;;3.80;61.31;100306.09;1623761;88;21180;-76
2021/04/10 02:06:22;;;;;;;51.95;17.50;;;;;;;3.84;61.31;100311.95;1649077;85;21621;-76
2021/04/10 02:08:51;;;;;;;36.03;15.72;;;;;;;3.90;61.28;100315.41;1649860;86;21621;-76
2021/04/10 02:11:17;;;;;;;29.72;15.45;;;;;;;3.91;61.26;100318.37;1650534;86;21262;-76
2021/04/10 02:13:44;;;;;;;34.27;15.05;;;;;;;3.90;61.25;100314.09;1650401;86;21391;-76
2021/04/10 02:16:10;;;;;;;36.60;15.72;;;;;;;3.89;61.24;100298.74;1650378;85;21208;-75
2021/04/10 02:18:36;;;;;;;29.90;14.43;;;;;;;3.92;61.23;100295.84;1650317;86;21637;-76
2021/04/10 02:23:46;;;;;;;34.88;15.43;;;;;;;4.03;61.18;100283.89;1852110;77;22122;-76
2021/04/10 02:26:13;;;;;;;31.68;14.95;;;;;;;3.99;61.15;100288.23;1824355;78;21124;-76
2021/04/10 02:28:39;;;;;;;31.12;15.28;;;;;;;4.01;61.13;100288.95;1823909;78;21184;-76
2021/04/10 02:31:06;;;;;;;32.42;15.10;;;;;;;4.04;61.12;100287.38;1823407;78;21128;-76
2021/04/10 02:33:36;;;;;;;31.65;14.93;;;;;;;4.07;61.08;100292.86;1803155;78;21140;-76
2021/04/10 02:36:03;;;;;;;36.93;15.50;;;;;;;4.04;61.06;100295.29;1791736;80;21111;-76
2021/04/10 02:38:31;;;;;;;29.65;15.35;;;;;;;4.03;61.06;100293.61;1791646;80;21167;-76
2021/04/10 02:41:16;;;;;;;36.10;16.27;;;;;;;4.01;61.02;100302.16;1791702;80;21209;-76
2021/04/10 02:43:46;;;;;;;54.40;20.15;;;;;;;3.98;61.04;100298.42;1791820;80;20974;-76
2021/04/10 02:46:13;;;;;;;50.12;18.62;;;;;;;3.93;61.03;100301.48;1791858;80;26659;-76
2021/04/10 02:48:46;;;;;;;42.93;17.32;;;;;;;3.91;61.02;100302.55;1791625;80;21227;-75
2021/04/10 02:51:38;;;;;;;33.42;15.60;;;;;;;3.93;61.00;100308.55;1810764;77;22339;-76
2021/04/10 02:54:04;;;;;;;37.98;16.80;;;;;;;3.86;61.00;100302.13;1781441;78;21274;-76
2021/04/10 02:56:31;;;;;;;39.88;16.20;;;;;;;3.84;61.00;100296.96;1796680;79;21381;-76
2021/04/10 02:58:58;;;;;;;34.23;15.15;;;;;;;3.80;61.00;100309.23;1796974;79;21202;-77
2021/04/10 03:01:25;;;;;;;40.17;17.23;;;;;;;3.77;60.99;100300.24;1793227;79;21171;-76
2021/04/10 03:03:51;;;;;;;35.40;16.25;;;;;;;3.73;61.03;100294.39;1757317;81;21128;-76
2021/04/10 03:06:18;;;;;;;45.92;18.05;;;;;;;3.70;61.02;100289.85;1757356;81;21621;-76
2021/04/10 03:08:46;;;;;;;35.52;17.48;;;;;;;3.69;61.03;100289.52;1757239;81;21211;-76
2021/04/10 03:11:15;;;;;;;29.77;14.58;;;;;;;3.68;61.03;100295.75;1757295;81;21614;-76
2021/04/10 03:13:43;;;;;;;32.75;15.08;;;;;;;3.67;61.03;100296.70;1757100;81;21137;-75
2021/04/10 03:16:09;;;;;;;33.18;15.48;;;;;;;3.70;61.06;100299.08;1757305;81;21203;-76
2021/04/10 03:18:36;;;;;;;32.55;15.30;;;;;;;3.75;61.04;100302.19;1757314;81;21148;-76
2021/04/10 03:21:05;;;;;;;27.75;14.28;;;;;;;3.75;61.03;100303.02;1755071;80;21171;-76
2021/04/10 03:23:31;;;;;;;30.20;15.55;;;;;;;3.76;61.05;100303.86;1760871;80;21171;-76
2021/04/10 03:25:58;;;;;;;86.87;42.43;;;;;;;3.83;61.05;100310.30;1763000;81;21167;-76
2021/04/10 03:28:26;;;;;;;37.75;18.52;;;;;;;3.82;61.05;100309.94;1733443;82;21187;-76
2021/04/10 03:30:52;;;;;;;39.95;18.32;;;;;;;3.79;61.06;100310.20;1794222;80;21151;-76
2021/04/10 03:33:19;;;;;;;39.60;16.75;;;;;;;3.75;61.11;100310.09;1794421;80;21184;-76
2021/04/10 03:35:45;;;;;;;42.93;19.23;;;;;;;3.76;61.15;100312.62;1794202;80;21135;-76
2021/04/10 03:38:12;;;;;;;49.73;18.77;;;;;;;3.80;61.16;100310.56;1794139;80;21139;-76
2021/04/10 03:40:38;;;;;;;46.05;21.25;;;;;;;3.80;61.17;100313.20;1765506;80;21147;-76
2021/04/10 03:43:04;;;;;;;33.78;17.05;;;;;;;3.73;61.21;100304.13;1794378;80;21604;-76
2021/04/10 03:45:30;;;;;;;53.23;25.88;;;;;;;3.66;61.24;100306.92;1794409;80;22401;-76
2021/04/10 03:47:57;;;;;;;54.13;25.90;;;;;;;3.65;61.31;100308.72;1794371;80;21136;-76
2021/04/10 03:50:23;;;;;;;48.35;24.45;;;;;;;3.74;61.34;100298.70;1779494;80;21192;-76
2021/04/10 03:52:50;;;;;;;37.90;20.95;;;;;;;3.85;61.32;100289.89;1754332;81;21184;-76
2021/04/10 03:55:16;;;;;;;30.37;14.50;;;;;;;3.95;61.30;100290.77;1754790;81;21210;-76
2021/04/10 03:57:43;;;;;;;29.15;14.87;;;;;;;4.10;61.29;100297.39;1739730;81;22102;-76
2021/04/10 04:00:10;;;;;;;27.85;14.65;;;;;;;4.24;61.25;100285.66;1724754;82;21173;-76
2021/04/10 04:02:38;;;;;;;27.82;16.20;;;;;;;4.32;61.23;100286.67;1724261;83;21189;-76
2021/04/10 04:05:06;;;;;;;29.98;13.85;;;;;;;4.37;61.17;100285.77;1724104;82;21161;-76
2021/04/10 04:07:32;;;;;;;30.75;15.08;;;;;;;4.41;61.14;100280.58;1724121;81;21182;-76
2021/04/10 04:10:00;;;;;;;27.32;14.23;;;;;;;4.46;61.09;100284.98;1732218;81;21871;-76
2021/04/10 04:12:26;;;;;;;27.82;13.22;;;;;;;4.50;61.04;100290.33;1754210;81;21128;-76
2021/04/10 04:14:52;;;;;;;30.35;14.73;;;;;;;4.51;61.03;100298.61;1728896;81;21579;-76
2021/04/10 04:17:19;;;;;;;64.25;24.87;;;;;;;4.53;60.99;100296.69;1723971;81;21205;-76
2021/04/10 04:19:45;;;;;;;42.70;18.70;;;;;;;4.53;60.98;100290.56;1723856;83;21178;-76
2021/04/10 04:22:11;;;;;;;40.43;17.23;;;;;;;4.57;60.93;100293.77;1724061;81;21248;-76
2021/04/10 04:24:38;;;;;;;41.48;17.10;;;;;;;4.60;60.90;100296.14;1724149;82;21209;-76
2021/04/10 04:27:05;;;;;;;44.40;18.07;;;;;;;4.62;60.85;100302.11;1753497;81;21131;-76
2021/04/10 04:29:31;;;;;;;37.95;17.82;;;;;;;4.63;60.82;100308.59;1752098;81;21189;-76
2021/04/10 04:31:57;;;;;;;35.80;16.50;;;;;;;4.64;60.78;100308.11;1754171;81;21199;-76
2021/04/10 04:34:24;;;;;;;45.48;18.10;;;;;;;4.64;60.77;100310.27;1754233;81;21208;-76
2021/04/10 04:36:50;;;;;;;33.90;15.32;;;;;;;4.64;60.75;100298.39;1753965;81;21128;-76
2021/04/10 04:39:16;;;;;;;25.95;13.88;;;;;;;4.64;60.74;100293.59;1754302;81;21149;-76
2021/04/10 04:41:43;;;;;;;29.57;13.43;;;;;;;4.65;60.74;100285.99;1754236;81;21144;-76
2021/04/10 04:44:09;;;;;;;26.68;13.62;;;;;;;4.73;60.73;100264.55;1753985;81;21136;-76
2021/04/10 04:46:36;;;;;;;26.73;13.08;;;;;;;4.84;60.67;100268.88;1754145;81;21159;-76
2021/04/10 04:49:03;;;;;;;22.17;12.65;;;;;;;4.94;60.61;100267.09;1753856;81;21549;-76
2021/04/10 04:51:29;;;;;;;25.88;12.35;;;;;;;5.04;60.57;100268.77;1772526;80;21212;-76
2021/04/10 04:53:56;;;;;;;20.88;12.05;;;;;;;5.15;60.49;100271.77;1787551;80;21128;-76
2021/04/10 04:56:22;;;;;;;22.50;13.48;;;;;;;5.25;60.42;100278.37;1787761;80;21096;-76
2021/04/10 04:58:49;;;;;;;26.33;12.47;;;;;;;5.32;60.36;100276.84;1787723;80;22080;-76
2021/04/10 05:01:15;;;;;;;26.42;13.08;;;;;;;5.40;60.29;100269.89;1779594;79;21155;-76
2021/04/10 05:03:41;;;;;;;22.87;12.78;;;;;;;5.48;60.20;100268.71;1796498;79;21152;-76
2021/04/10 05:06:07;;;;;;;25.65;12.68;;;;;;;5.51;60.12;100274.20;1794409;79;21159;-77
2021/04/10 05:08:34;;;;;;;25.80;14.05;;;;;;;5.54;60.07;100281.84;1781826;80;21185;-77
2021/04/10 05:11:01;;;;;;;24.25;14.73;;;;;;;5.59;60.00;100286.73;1787578;80;21272;-77
2021/04/10 05:13:27;;;;;;;29.70;15.50;;;;;;;5.63;59.94;100285.47;1787380;80;21222;-76
2021/04/10 05:15:56;;;;;;;26.85;14.60;;;;;;;5.72;59.91;100290.74;1786881;80;21119;-77
2021/04/10 05:18:23;;;;;;;30.25;15.03;;;;;;;5.77;59.84;100290.33;1774714;80;21120;-77
2021/04/10 05:20:49;;;;;;;28.75;14.35;;;;;;;5.79;59.75;100293.17;1786902;80;21147;-76
2021/04/10 05:23:21;;;;;;;33.10;16.37;;;;;;;5.79;59.69;100285.72;1761020;80;21562;-76
2021/04/10 05:25:48;;;;;;;28.32;15.30;;;;;;;5.80;59.67;100292.69;1753289;81;21542;-76
2021/04/10 05:28:15;;;;;;;29.52;16.17;;;;;;;5.80;59.61;100295.33;1762589;80;21207;-76
2021/04/10 05:30:41;;;;;;;34.73;15.05;;;;;;;5.81;59.55;100307.08;1759754;80;21156;-76
2021/04/10 05:33:08;;;;;;;27.70;15.85;;;;;;;5.80;59.48;100311.20;1773251;80;21623;-76
2021/04/10 05:35:34;;;;;;;29.12;16.00;;;;;;;5.80;59.48;100313.85;1759848;80;21200;-76
2021/04/10 05:38:01;;;;;;;27.70;15.75;;;;;;;5.79;59.42;100312.17;1757033;81;21168;-76
2021/04/10 05:40:28;;;;;;;31.02;16.05;;;;;;;5.81;59.38;100316.83;1756916;81;21173;-77
2021/04/10 05:42:54;;;;;;;29.55;15.95;;;;;;;5.83;59.35;100316.21;1755991;80;21648;-77
2021/04/10 05:45:21;;;;;;;29.20;16.00;;;;;;;5.83;59.32;100314.89;1780985;80;21109;-77
2021/04/10 05:47:47;;;;;;;30.77;15.72;;;;;;;5.83;59.30;100314.89;1768379;80;21192;-77
2021/04/10 05:50:14;;;;;;;34.48;17.35;;;;;;;5.82;59.24;100318.02;1785380;80;21577;-77
2021/04/10 05:52:40;;;;;;;51.68;22.07;;;;;;;5.86;59.22;100320.77;1764824;80;21796;-77
2021/04/10 05:55:08;;;;;;;66.05;26.17;;;;;;;5.88;59.20;100317.48;1753927;80;21152;-76
2021/04/10 05:57:34;;;;;;;74.17;30.30;;;;;;;5.95;59.19;100319.06;1770901;80;21207;-76
2021/04/10 06:00:01;;;;;;;63.85;28.10;;;;;;;6.07;59.16;100324.55;1772166;78;21199;-76
2021/04/10 06:02:27;;;;;;;58.05;25.32;;;;;;;6.19;59.11;100328.72;1767596;80;21643;-76
2021/04/10 06:04:53;;;;;;;54.03;24.18;;;;;;;6.32;59.09;100339.81;1774634;80;21125;-77
2021/04/10 06:07:20;;;;;;;45.70;23.42;;;;;;;6.45;59.03;100340.32;1722486;81;21611;-77
2021/04/10 06:09:46;;;;;;;42.75;22.30;;;;;;;6.54;59.01;100339.44;1766058;80;21155;-77
2021/04/10 06:12:12;;;;;;;40.05;19.20;;;;;;;6.64;58.95;100338.58;1766050;80;21116;-77
2021/04/10 06:14:39;;;;;;;32.38;17.20;;;;;;;6.74;58.92;100346.00;1742153;80;21164;-77
2021/04/10 06:17:05;;;;;;;38.75;18.10;;;;;;;6.83;58.88;100346.42;1760261;80;21217;-76
2021/04/10 06:19:33;;;;;;;34.70;17.17;;;;;;;6.88;58.84;100348.16;1785956;80;21163;-76
2021/04/10 06:21:59;;;;;;;35.95;17.37;;;;;;;6.96;58.81;100349.59;1772612;80;21203;-77
2021/04/10 06:24:26;;;;;;;43.10;17.50;;;;;;;7.00;58.76;100357.59;1786840;80;21136;-77
2021/04/10 06:26:52;;;;;;;40.83;22.22;;;;;;;7.08;58.72;100364.30;1771773;80;21136;-77
2021/04/10 06:29:18;;;;;;;43.05;24.40;;;;;;;7.12;58.68;100370.97;1758293;80;21143;-77
2021/04/10 06:31:45;;;;;;;46.58;26.82;;;;;;;7.16;58.65;100371.02;1778442;78;21551;-77
2021/04/10 06:34:11;;;;;;;42.73;24.60;;;;;;;7.19;58.58;100364.09;1787685;80;21092;-77
2021/04/10 06:36:37;;;;;;;41.02;22.98;;;;;;;7.17;58.53;100356.80;1786747;80;21191;-77
2021/04/10 06:39:03;;;;;;;42.70;23.20;;;;;;;7.18;58.50;100364.27;1787502;80;21231;-77
2021/04/10 06:41:30;;;;;;;45.65;22.50;;;;;;;7.21;58.47;100370.09;1787612;80;21156;-77
2021/04/10 06:43:57;;;;;;;49.00;29.82;;;;;;;7.26;58.44;100378.91;1787586;80;21112;-77
2021/04/10 06:46:24;;;;;;;54.53;28.57;;;;;;;7.28;58.40;100383.59;1787511;80;21572;-77
2021/04/10 06:48:51;;;;;;;49.77;24.05;;;;;;;7.35;58.40;100388.12;1787397;80;21254;-77
2021/04/10 06:51:17;;;;;;;36.70;17.12;;;;;;;7.41;58.37;100381.41;1787400;80;21632;-77
2021/04/10 06:53:45;;;;;;;30.12;16.75;;;;;;;7.49;58.32;100380.98;1787524;80;21529;-77
2021/04/10 06:56:14;;;;;;;24.18;12.40;;;;;;;7.63;58.28;100385.45;1787511;80;21672;-77
2021/04/10 06:59:22;;;;;;;24.90;15.98;;;;;;;7.71;58.21;100380.19;1786305;80;21597;-78
2021/04/10 07:01:48;;;;;;;38.15;20.95;;;;;;;7.80;58.13;100379.30;1787033;80;22075;-78
2021/04/10 07:04:15;;;;;;;28.92;17.15;;;;;;;7.88;58.10;100388.67;1787518;80;21179;-78
2021/04/10 07:06:41;;;;;;;46.58;25.40;;;;;;;7.92;58.06;100389.52;1787460;80;21116;-78
2021/04/10 07:09:08;;;;;;;43.70;24.82;;;;;;;7.99;58.03;100395.05;1787454;80;21168;-78
2021/04/10 07:11:36;;;;;;;41.25;20.48;;;;;;;8.00;58.05;100398.05;1786551;80;21195;-76
2021/04/10 07:14:02;;;;;;;44.42;21.60;;;;;;;8.04;58.08;100403.40;1776988;79;21603;-77
2021/04/10 07:16:36;;;;;;;37.93;20.08;;;;;;;8.08;58.10;100410.08;1770288;80;21171;-77
2021/04/10 07:22:04;;;;;;;42.40;23.70;;;;;;;8.19;58.15;100420.47;1798890;77;27994;-77
2021/04/10 07:24:39;;;;;;;40.20;22.05;;;;;;;8.25;58.11;100421.17;1787123;80;21183;-78
2021/04/10 07:27:07;;;;;;;44.00;28.50;;;;;;;8.24;58.07;100431.44;1786466;80;21588;-78
2021/04/10 07:29:37;;;;;;;62.67;33.88;;;;;;;8.19;58.08;100439.55;1766780;80;21199;-77
2021/04/10 07:35:18;;;;;;;34.55;18.32;;;;;;;7.99;58.13;100437.53;1728555;82;21172;-77
2021/04/10 07:37:49;;;;;;;53.45;29.07;;;;;;;7.90;58.14;100430.49;1691310;84;21190;-78
2021/04/10 07:40:25;;;;;;;65.12;39.42;;;;;;;7.84;58.20;100430.63;1673170;85;22170;-77
2021/04/10 07:42:52;;;;;;;85.12;55.50;;;;;;;7.75;58.20;100417.40;1691085;84;21224;-77
2021/04/10 07:45:34;;;;;;;64.10;34.25;;;;;;;7.63;58.27;100426.09;1679988;84;21677;-77
2021/04/10 07:48:10;;;;;;;34.78;21.95;;;;;;;7.61;58.38;100415.27;1675436;84;21199;-77
2021/04/10 07:50:37;;;;;;;40.60;23.80;;;;;;;7.70;58.46;100415.22;1702181;84;21153;-77
2021/04/10 07:53:25;;;;;;;45.23;21.93;;;;;;;7.78;58.50;100407.80;1685531;85;21229;-77
2021/04/10 07:55:53;;;;;;;38.10;21.87;;;;;;;7.80;58.49;100400.53;1703643;84;21194;-77
2021/04/10 07:58:36;;;;;;;41.25;24.72;;;;;;;7.86;58.54;100411.86;1695021;84;21597;-77
2021/04/10 08:01:07;;;;;;;45.67;25.80;;;;;;;7.86;58.57;100406.55;1685548;84;21204;-77
2021/04/10 08:03:41;;;;;;;41.10;23.38;;;;;;;7.87;58.59;100395.80;1685938;84;21199;-77
2021/04/10 08:06:13;;;;;;;38.28;21.70;;;;;;;7.85;58.59;100395.59;1700844;84;21224;-77
2021/04/10 08:08:54;;;;;;;42.27;23.05;;;;;;;7.80;58.60;100398.72;1694821;84;21243;-77
2021/04/10 08:11:39;;;;;;;33.50;19.95;;;;;;;7.83;58.63;100400.23;1677293;84;21202;-77
2021/04/10 08:14:13;;;;;;;35.15;20.32;;;;;;;7.86;58.61;100395.94;1686699;84;21176;-77
2021/04/10 08:16:53;;;;;;;38.67;20.62;;;;;;;7.91;58.64;100398.98;1686039;84;21228;-77
2021/04/10 08:19:30;;;;;;;38.78;20.12;;;;;;;7.97;58.62;100401.02;1672993;84;21696;-77
2021/04/10 08:21:57;;;;;;;36.23;19.52;;;;;;;8.04;58.67;100403.40;1673828;85;21208;-77
2021/04/10 08:24:41;;;;;;;39.40;22.30;;;;;;;8.06;58.68;100409.38;1673728;85;21227;-78
2021/04/10 08:27:13;;;;;;;41.58;21.68;;;;;;;8.08;58.70;100407.42;1671619;85;21628;-77
2021/04/10 08:29:42;;;;;;;42.13;23.35;;;;;;;8.10;58.74;100410.74;1658417;85;21227;-77
2021/04/10 08:32:08;;;;;;;37.33;21.17;;;;;;;8.15;58.78;100403.16;1673242;85;22021;-77
2021/04/10 08:34:36;;;;;;;33.73;20.00;;;;;;;8.16;58.80;100403.51;1691630;84;21227;-77
2021/04/10 08:37:08;;;;;;;39.08;19.98;;;;;;;8.13;58.84;100401.66;1703931;84;21582;-77
2021/04/10 08:39:37;;;;;;;36.15;20.68;;;;;;;8.16;58.87;100415.46;1698799;84;21676;-76
2021/04/10 08:42:04;;;;;;;32.48;20.95;;;;;;;8.18;59.03;100397.53;1699005;84;21177;-77
2021/04/10 08:44:33;;;;;;;40.70;20.25;;;;;;;8.18;59.03;100397.53;1706005;84;21275;-77
2021/04/10 08:46:59;;;;;;;38.28;21.30;;;;;;;8.35;59.02;100415.30;1706135;84;21204;-77
2021/04/10 08:49:30;;;;;;;43.15;21.77;;;;;;;8.38;59.04;100422.11;1705662;84;21141;-77
2021/04/10 08:52:08;;;;;;;34.63;19.62;;;;;;;8.40;59.08;100422.31;1705393;84;21299;-77
2021/04/10 08:54:35;;;;;;;33.70;21.82;;;;;;;8.50;59.14;100428.86;1726284;83;21191;-77
2021/04/10 08:57:09;;;;;;;39.80;22.55;;;;;;;8.62;59.17;100440.07;1703966;84;21326;-78
2021/04/10 08:59:44;;;;;;;40.05;22.58;;;;;;;8.68;59.18;100441.60;1726272;82;21167;-78
2021/04/10 09:02:16;;;;;;;43.65;21.57;;;;;;;8.70;59.20;100453.39;1726093;83;21160;-77
2021/04/10 09:05:01;;;;;;;41.65;20.85;;;;;;;8.68;59.25;100457.55;1725249;83;21719;-77
2021/04/10 09:07:53;;;;;;;39.73;22.45;;;;;;;8.71;59.33;100461.23;1683923;84;21176;-77
2021/04/10 09:10:31;;;;;;;35.25;20.37;;;;;;;8.71;59.36;100465.70;1698973;83;21207;-77
2021/04/10 09:16:44;;;;;;;38.50;21.12;;;;;;;8.74;59.45;100466.23;1851064;77;23336;-77
2021/04/10 09:19:19;;;;;;;35.85;21.10;;;;;;;8.73;59.49;100469.87;1785289;78;21712;-77
2021/04/10 09:21:53;;;;;;;36.20;22.52;;;;;;;8.81;59.54;100473.08;1782064;80;21232;-77
2021/04/10 09:24:27;;;;;;;37.33;23.10;;;;;;;8.82;59.56;100484.06;1744781;82;21160;-77
2021/04/10 09:27:25;;;;;;;41.53;21.20;;;;;;;8.81;59.62;100485.05;1733414;82;21202;-77
2021/04/10 09:30:03;;;;;;;84.10;39.20;;;;;;;8.86;59.67;100492.07;1728051;82;21171;-77
2021/04/10 09:32:44;;;;;;;125.90;60.25;;;;;;;8.84;59.69;100487.38;1722155;82;21695;-77
2021/04/10 09:35:18;;;;;;;95.77;50.05;;;;;;;8.83;59.78;100488.41;1700168;84;21251;-77
2021/04/10 09:37:49;;;;;;;53.00;29.70;;;;;;;8.81;59.86;100483.72;1700032;84;21636;-77
2021/04/10 09:40:25;;;;;;;37.55;22.32;;;;;;;8.83;59.95;100489.73;1713151;82;21144;-78
2021/04/10 09:42:58;;;;;;;33.18;19.07;;;;;;;8.83;60.02;100493.72;1705202;82;21176;-78
2021/04/10 09:48:14;;;;;;;55.45;29.67;;;;;;;8.90;60.26;100484.13;1800799;77;22623;-75
2021/04/10 09:50:46;;;;;;;33.40;21.80;;;;;;;8.86;60.38;100493.40;1778702;80;21620;-76
2021/04/10 09:53:22;;;;;;;34.95;19.30;;;;;;;8.81;60.51;100489.88;1782526;80;21261;-76
2021/04/10 09:56:09;;;;;;;34.73;19.67;;;;;;;8.86;60.65;100490.74;1776850;80;21198;-76
2021/04/10 09:58:41;;;;;;;35.52;19.40;;;;;;;8.92;60.77;100490.95;1757300;80;21155;-76
2021/04/10 10:01:15;;;;;;;37.70;21.42;;;;;;;8.96;60.88;100491.47;1778856;80;21229;-76
2021/04/10 10:03:42;;;;;;;35.52;19.42;;;;;;;8.99;60.95;100492.48;1755446;81;21183;-77
2021/04/10 10:06:22;;;;;;;35.73;21.82;;;;;;;9.05;61.06;100497.16;1774931;80;21179;-77
2021/04/10 10:08:51;;;;;;;31.85;17.50;;;;;;;9.06;61.15;100504.16;1755734;81;21195;-77
2021/04/10 10:11:17;;;;;;;41.83;19.70;;;;;;;9.00;61.32;100510.95;1755765;81;21139;-77
2021/04/10 10:13:44;;;;;;;50.78;28.75;;;;;;;8.93;61.51;100507.73;1758713;80;21143;-77
2021/04/10 10:16:10;;;;;;;35.98;21.90;;;;;;;8.94;61.72;100516.03;1771108;80;21138;-77
2021/04/10 10:18:40;;;;;;;39.13;22.40;;;;;;;8.97;61.88;100519.22;1758201;80;21249;-77
2021/04/10 10:21:16;;;;;;;38.10;21.27;;;;;;;8.96;62.05;100513.58;1742522;81;25267;-77
2021/04/10 10:23:59;;;;;;;31.30;18.23;;;;;;;8.94;62.20;100516.03;1695062;83;21160;-77
2021/04/10 10:26:38;;;;;;;33.55;19.17;;;;;;;8.93;62.36;100523.70;1673468;84;21625;-77
2021/04/10 10:29:14;;;;;;;35.43;21.40;;;;;;;9.01;62.49;100517.91;1688168;84;21617;-77
2021/04/10 10:31:55;;;;;;;55.03;31.23;;;;;;;9.02;62.56;100514.27;1701232;84;21201;-77
2021/04/10 10:34:26;;;;;;;30.60;18.70;;;;;;;8.99;62.68;100511.09;1700829;82;21550;-76
2021/04/10 10:36:53;;;;;;;29.60;17.85;;;;;;;8.97;62.78;100503.78;1701928;84;21184;-76
2021/04/10 10:39:35;;;;;;;29.72;17.67;;;;;;;8.98;62.91;100504.94;1701713;84;21219;-76
2021/04/10 10:42:03;;;;;;;30.50;18.65;;;;;;;9.03;63.03;100512.45;1702102;84;21186;-76
2021/04/10 10:44:30;;;;;;;37.40;20.82;;;;;;;9.00;63.13;100517.60;1675591;84;22088;-77
2021/04/10 10:47:01;;;;;;;35.30;21.77;;;;;;;8.98;63.24;100516.06;1711484;83;21220;-77
2021/04/10 10:49:28;;;;;;;35.33;20.30;;;;;;;8.96;63.33;100518.90;1718660;83;21200;-77
2021/04/10 10:51:54;;;;;;;114.22;62.30;;;;;;;8.97;63.38;100522.40;1718477;83;21692;-77
2021/04/10 10:54:34;;;;;;;55.98;31.05;;;;;;;8.99;63.44;100525.72;1720577;83;21576;-78
2021/04/10 10:57:11;;;;;;;268.23;119.25;;;;;;;9.00;63.54;100523.41;1720611;83;21180;-77
2021/04/10 10:59:37;;;;;;;31.60;19.02;;;;;;;9.11;63.62;100531.14;1704918;83;21207;-77
2021/04/10 11:02:04;;;;;;;71.85;33.08;;;;;;;9.15;63.68;100533.80;1700956;84;21172;-77
2021/04/10 11:04:32;;;;;;;33.78;18.05;;;;;;;9.15;63.78;100537.78;1700054;84;21218;-77
2021/04/10 11:07:01;;;;;;;59.95;39.13;;;;;;;9.18;63.87;100533.50;1710243;83;21572;-77
2021/04/10 11:09:34;;;;;;;33.98;18.05;;;;;;;9.21;64.00;100533.19;1694588;83;21236;-78
2021/04/10 11:12:08;;;;;;;69.12;29.50;;;;;;;9.29;64.07;100538.53;1717349;83;21676;-77
2021/04/10 11:14:39;;;;;;;54.53;25.80;;;;;;;9.37;64.14;100538.58;1705586;83;21155;-78
2021/04/10 11:17:03;;;;;;;51.28;26.17;;;;;;;9.42;64.22;100539.45;1712565;83;21224;-78
2021/04/10 11:19:38;;;;;;;45.78;25.02;;;;;;;9.41;64.29;100537.77;1692806;83;21632;-77
2021/04/10 11:22:06;;;;;;;35.78;21.62;;;;;;;9.37;64.33;100538.58;1706752;83;21250;-77
2021/04/10 11:24:41;;;;;;;29.63;17.82;;;;;;;9.44;64.41;100541.44;1701275;83;21661;-78
2021/04/10 11:27:17;;;;;;;24.15;16.15;;;;;;;9.41;64.44;100542.59;1690956;84;21616;-77
2021/04/10 11:29:55;;;;;;;33.25;18.80;;;;;;;9.41;64.50;100543.93;1691220;84;21192;-77
2021/04/10 11:32:32;;;;;;;35.30;19.67;;;;;;;9.53;64.52;100547.96;1690898;84;21246;-77
2021/04/10 11:35:02;;;;;;;35.80;22.95;;;;;;;9.58;64.54;100550.65;1691071;84;21210;-77
2021/04/10 11:37:37;;;;;;;38.30;21.23;;;;;;;9.70;64.57;100545.39;1708113;83;21184;-77
2021/04/10 11:40:23;;;;;;;45.78;26.27;;;;;;;9.83;64.58;100545.76;1719865;83;21136;-78
2021/04/10 11:43:02;;;;;;;53.40;28.35;;;;;;;9.90;64.59;100545.45;1719991;83;21485;-77
2021/04/10 11:45:42;;;;;;;34.30;20.32;;;;;;;9.99;64.60;100551.16;1718348;83;21669;-77